Time,TemperatureF,DewpointF,PressureIn,WindDirection,WindDirectionDegrees,WindSpeedMPH,WindSpeedGustMPH,Humidity,HourlyPrecipIn,Conditions,Clouds,dailyrainin,SoftwareType,DateUTC
2013-08-18 00:07:00,65.3,50.5,29.87,SE,136,0.0,0.0,59,0.00,,,0.00,meteobridge,2013-08-18 07:07:00,
2013-08-18 00:22:00,64.0,50.4,29.87,SE,136,0.0,0.0,61,0.00,,,0.00,meteobridge,2013-08-18 07:22:00,
2013-08-18 00:37:00,63.9,50.5,29.87,SE,136,0.0,0.0,62,0.00,,,0.00,meteobridge,2013-08-18 07:37:00,
2013-08-18 00:52:00,63.3,50.0,29.87,SE,136,0.0,0.0,62,0.00,,,0.00,meteobridge,2013-08-18 07:52:00,
2013-08-18 01:07:00,63.0,50.2,29.87,SE,136,0.0,0.0,63,0.00,,,0.00,meteobridge,2013-08-18 08:07:00,
2013-08-18 01:22:00,62.8,50.4,29.88,SE,136,0.0,0.0,64,0.00,,,0.00,meteobridge,2013-08-18 08:22:00,
2013-08-18 01:37:00,62.2,50.4,29.88,SE,136,0.0,0.0,65,0.00,,,0.00,meteobridge,2013-08-18 08:37:00,
2013-08-18 01:52:00,62.6,50.2,29.88,SE,136,0.0,0.0,64,0.00,,,0.00,meteobridge,2013-08-18 08:52:00,
2013-08-18 02:07:00,62.6,50.7,29.88,SE,136,0.0,0.0,65,0.00,,,0.00,meteobridge,2013-08-18 09:07:00,
2013-08-18 02:23:00,62.1,50.5,29.88,SE,136,0.0,0.0,66,0.00,,,0.00,meteobridge,2013-08-18 09:23:00,
2013-08-18 02:38:00,61.5,50.5,29.88,SE,136,0.0,0.0,67,0.00,,,0.00,meteobridge,2013-08-18 09:38:00,
2013-08-18 02:53:00,61.0,50.4,29.88,SE,136,0.0,0.0,68,0.00,,,0.00,meteobridge,2013-08-18 09:53:00,
2013-08-18 03:08:00,61.0,50.4,29.89,SE,136,0.0,0.0,68,0.00,,,0.00,meteobridge,2013-08-18 10:08:00,
2013-08-18 03:23:00,61.2,50.5,29.90,ENE,68,0.0,0.9,68,0.00,,,0.00,meteobridge,2013-08-18 10:23:00,
2013-08-18 03:39:00,61.3,50.7,29.90,East,94,0.0,0.0,68,0.00,,,0.00,meteobridge,2013-08-18 10:39:00,
2013-08-18 03:54:00,61.5,50.9,29.90,ESE,120,0.9,0.9,68,0.00,,,0.00,meteobridge,2013-08-18 10:54:00,
2013-08-18 04:09:00,61.3,50.7,29.91,South,190,0.0,0.0,68,0.00,,,0.00,meteobridge,2013-08-18 11:09:00,
2013-08-18 04:24:00,60.8,50.2,29.91,NW,321,0.0,0.9,68,0.00,,,0.00,meteobridge,2013-08-18 11:24:00,
2013-08-18 04:39:00,60.8,50.2,29.90,WSW,254,0.0,0.0,68,0.00,,,0.00,meteobridge,2013-08-18 11:39:00,
2013-08-18 04:54:00,60.4,49.8,29.91,SW,234,0.0,0.0,68,0.00,,,0.00,meteobridge,2013-08-18 11:54:00,
2013-08-18 05:10:00,59.7,50.0,29.93,NW,315,0.0,0.0,70,0.00,,,0.00,meteobridge,2013-08-18 12:10:00,
2013-08-18 05:25:00,59.4,49.1,29.93,East,100,0.0,0.9,69,0.00,,,0.00,meteobridge,2013-08-18 12:25:00,
2013-08-18 05:40:00,59.5,48.9,29.93,ENE,75,0.0,0.9,68,0.00,,,0.00,meteobridge,2013-08-18 12:40:00,
2013-08-18 05:55:00,59.2,49.1,29.93,NE,49,0.9,0.9,69,0.00,,,0.00,meteobridge,2013-08-18 12:55:00,
2013-08-18 06:10:00,59.2,48.6,29.93,East,101,0.9,2.0,68,0.00,,,0.00,meteobridge,2013-08-18 13:10:00,
2013-08-18 06:25:00,58.8,48.7,29.94,East,86,0.0,0.9,69,0.00,,,0.00,meteobridge,2013-08-18 13:25:00,
2013-08-18 06:40:00,59.0,48.9,29.94,SSE,155,0.0,0.0,69,0.00,,,0.00,meteobridge,2013-08-18 13:40:00,
2013-08-18 06:55:00,59.4,48.7,29.95,SSE,152,0.0,0.9,68,0.00,,,0.00,meteobridge,2013-08-18 13:55:00,
2013-08-18 07:10:00,61.0,49.5,29.96,ENE,63,0.0,4.0,66,0.00,,,0.00,meteobridge,2013-08-18 14:10:00,
2013-08-18 07:25:00,62.2,49.5,29.96,SSW,193,0.0,2.0,63,0.00,,,0.00,meteobridge,2013-08-18 14:25:00,
2013-08-18 07:40:00,61.9,50.4,29.96,WSW,244,0.0,0.0,66,0.00,,,0.00,meteobridge,2013-08-18 14:40:00,
2013-08-18 07:55:00,62.2,50.4,29.97,WSW,255,0.0,0.9,65,0.00,,,0.00,meteobridge,2013-08-18 14:55:00,
2013-08-18 08:11:00,64.8,51.1,29.97,WSW,254,0.9,0.9,61,0.00,,,0.00,meteobridge,2013-08-18 15:11:00,
2013-08-18 08:56:00,69.1,52.7,29.97,ESE,102,0.0,4.0,56,0.00,,,0.00,meteobridge,2013-08-18 15:56:00,
2013-08-18 09:11:00,70.3,51.4,29.97,SE,137,0.0,0.9,51,0.00,,,0.00,meteobridge,2013-08-18 16:11:00,
2013-08-18 09:26:00,71.2,51.6,29.98,ESE,108,0.0,0.0,50,0.00,,,0.00,meteobridge,2013-08-18 16:26:00,
2013-08-18 09:41:00,72.3,50.4,29.97,SSW,195,0.0,0.0,46,0.00,,,0.00,meteobridge,2013-08-18 16:41:00,
2013-08-18 09:56:00,74.3,50.4,29.97,SW,219,0.0,0.9,43,0.00,,,0.00,meteobridge,2013-08-18 16:56:00,
2013-08-18 10:11:00,74.8,50.2,29.97,SW,234,0.0,0.9,42,0.00,,,0.00,meteobridge,2013-08-18 17:11:00,
2013-08-18 10:26:00,75.9,49.8,29.97,SSE,157,0.0,2.0,40,0.00,,,0.00,meteobridge,2013-08-18 17:26:00,
2013-08-18 10:41:00,76.5,50.4,29.97,SW,234,0.0,4.0,40,0.00,,,0.00,meteobridge,2013-08-18 17:41:00,
2013-08-18 10:56:00,76.3,48.7,29.98,SW,233,0.0,2.9,38,0.00,,,0.00,meteobridge,2013-08-18 17:56:00,
2013-08-18 11:11:00,77.7,49.5,29.97,SSW,203,0.0,0.9,37,0.00,,,0.00,meteobridge,2013-08-18 18:11:00,
2013-08-18 11:27:00,78.4,50.0,29.97,SE,124,0.0,0.9,37,0.00,,,0.00,meteobridge,2013-08-18 18:27:00,
2013-08-18 11:42:00,78.6,50.2,29.97,SSW,205,0.0,0.0,37,0.00,,,0.00,meteobridge,2013-08-18 18:42:00,
2013-08-18 11:57:00,79.3,49.3,29.96,West,262,0.0,4.9,35,0.00,,,0.00,meteobridge,2013-08-18 18:57:00,
2013-08-18 12:12:00,79.0,52.0,29.96,NW,309,0.0,0.9,39,0.00,,,0.00,meteobridge,2013-08-18 19:12:00,
2013-08-18 12:27:00,79.2,52.7,29.95,SSE,150,0.0,2.0,40,0.00,,,0.00,meteobridge,2013-08-18 19:27:00,
2013-08-18 12:42:00,80.8,51.3,29.95,SW,235,0.9,0.9,36,0.00,,,0.00,meteobridge,2013-08-18 19:42:00,
2013-08-18 12:57:00,81.0,53.6,29.94,West,272,2.0,2.0,39,0.00,,,0.00,meteobridge,2013-08-18 19:57:00,
2013-08-18 13:12:00,81.5,51.3,29.94,WNW,297,2.0,4.0,35,0.00,,,0.00,meteobridge,2013-08-18 20:12:00,
2013-08-18 13:27:00,82.2,52.5,29.94,SSE,150,0.0,2.9,36,0.00,,,0.00,meteobridge,2013-08-18 20:27:00,
2013-08-18 13:42:00,82.8,51.4,29.94,East,93,0.9,0.9,34,0.00,,,0.00,meteobridge,2013-08-18 20:42:00,
2013-08-18 13:57:00,82.0,50.2,29.94,SW,235,2.9,4.0,33,0.00,,,0.00,meteobridge,2013-08-18 20:57:00,
2013-08-18 14:12:00,82.2,50.2,29.93,WSW,248,2.0,2.0,33,0.00,,,0.00,meteobridge,2013-08-18 21:12:00,
2013-08-18 14:27:00,82.2,50.2,29.93,WSW,243,0.0,4.0,33,0.00,,,0.00,meteobridge,2013-08-18 21:27:00,
2013-08-18 14:42:00,82.8,49.8,29.92,SE,128,0.9,8.9,32,0.00,,,0.00,meteobridge,2013-08-18 21:42:00,
2013-08-18 14:57:00,82.9,51.6,29.92,WSW,238,0.0,0.0,34,0.00,,,0.00,meteobridge,2013-08-18 21:57:00,
2013-08-18 15:12:00,83.7,52.3,29.91,WSW,249,0.0,0.9,34,0.00,,,0.00,meteobridge,2013-08-18 22:12:00,
2013-08-18 15:27:00,83.7,49.8,29.91,WSW,257,0.9,2.9,31,0.00,,,0.00,meteobridge,2013-08-18 22:27:00,
2013-08-18 15:43:00,84.0,51.8,29.90,ESE,117,0.0,0.0,33,0.00,,,0.00,meteobridge,2013-08-18 22:43:00,
2013-08-18 15:58:00,84.7,48.0,29.90,West,281,0.0,2.0,28,0.00,,,0.00,meteobridge,2013-08-18 22:58:00,
2013-08-18 16:13:00,85.8,48.9,29.89,WNW,300,0.0,0.9,28,0.00,,,0.00,meteobridge,2013-08-18 23:13:00,
2013-08-18 16:28:00,86.4,48.4,29.89,SSW,192,0.0,0.9,27,0.00,,,0.00,meteobridge,2013-08-18 23:28:00,
2013-08-18 16:43:00,86.5,48.6,29.88,SSW,192,0.0,0.0,27,0.00,,,0.00,meteobridge,2013-08-18 23:43:00,
2013-08-18 16:58:00,86.5,46.6,29.88,SW,228,2.0,4.0,25,0.00,,,0.00,meteobridge,2013-08-18 23:58:00,
2013-08-18 17:13:00,86.7,46.8,29.88,WSW,248,0.0,2.9,25,0.00,,,0.00,meteobridge,2013-08-19 00:13:00,
2013-08-18 17:28:00,85.8,46.9,29.88,SW,222,2.9,4.9,26,0.00,,,0.00,meteobridge,2013-08-19 00:28:00,
2013-08-18 17:43:00,84.7,48.0,29.87,WSW,246,0.0,0.0,28,0.00,,,0.00,meteobridge,2013-08-19 00:43:00,
2013-08-18 17:58:00,83.8,46.2,29.87,West,262,0.9,4.9,27,0.00,,,0.00,meteobridge,2013-08-19 00:58:00,
2013-08-18 18:13:00,82.9,46.4,29.86,SSW,208,0.0,0.0,28,0.00,,,0.00,meteobridge,2013-08-19 01:13:00,
2013-08-18 18:28:00,82.6,47.1,29.86,SW,216,0.9,2.9,29,0.00,,,0.00,meteobridge,2013-08-19 01:28:00,
2013-08-18 18:43:00,82.0,46.6,29.86,SW,229,0.0,2.9,29,0.00,,,0.00,meteobridge,2013-08-19 01:43:00,
2013-08-18 18:58:00,81.1,46.8,29.86,WSW,253,0.0,0.0,30,0.00,,,0.00,meteobridge,2013-08-19 01:58:00,
2013-08-18 19:13:00,80.2,46.0,29.86,West,259,0.0,0.9,30,0.00,,,0.00,meteobridge,2013-08-19 02:13:00,
2013-08-18 19:28:00,78.8,44.8,29.86,SSE,165,0.0,0.0,30,0.00,,,0.00,meteobridge,2013-08-19 02:28:00,
2013-08-18 19:44:00,77.4,45.1,29.86,WSW,254,0.0,0.0,32,0.00,,,0.00,meteobridge,2013-08-19 02:44:00,
2013-08-18 19:59:00,75.7,45.3,29.86,WSW,254,0.0,0.0,34,0.00,,,0.00,meteobridge,2013-08-19 02:59:00,
2013-08-18 20:14:00,74.8,46.0,29.86,WSW,254,0.0,0.0,36,0.00,,,0.00,meteobridge,2013-08-19 03:14:00,
2013-08-18 20:29:00,73.0,45.9,29.86,WSW,254,0.0,0.0,38,0.00,,,0.00,meteobridge,2013-08-19 03:29:00,
2013-08-18 20:44:00,71.8,46.2,29.87,WSW,254,0.0,0.0,40,0.00,,,0.00,meteobridge,2013-08-19 03:44:00,
2013-08-18 20:59:00,70.3,46.2,29.87,WSW,254,0.0,0.0,42,0.00,,,0.00,meteobridge,2013-08-19 03:59:00,
2013-08-18 21:14:00,69.3,46.4,29.88,WSW,254,0.0,0.0,44,0.00,,,0.00,meteobridge,2013-08-19 04:14:00,
2013-08-18 21:29:00,68.4,46.2,29.88,WSW,254,0.0,0.0,45,0.00,,,0.00,meteobridge,2013-08-19 04:29:00,
2013-08-18 21:44:00,67.8,46.9,29.87,WSW,240,0.9,0.9,47,0.00,,,0.00,meteobridge,2013-08-19 04:44:00,
2013-08-18 21:59:00,66.6,46.2,29.88,WSW,240,0.0,0.0,48,0.00,,,0.00,meteobridge,2013-08-19 04:59:00,
2013-08-18 22:14:00,66.0,46.4,29.88,WSW,240,0.0,0.0,49,0.00,,,0.00,meteobridge,2013-08-19 05:14:00,
2013-08-18 22:30:00,65.8,46.2,29.88,WSW,240,0.0,0.0,49,0.00,,,0.00,meteobridge,2013-08-19 05:30:00,
2013-08-18 22:46:00,65.8,46.2,29.88,WSW,240,0.0,0.0,49,0.00,,,0.00,meteobridge,2013-08-19 05:46:00,
2013-08-18 23:01:00,65.7,46.0,29.88,ESE,108,0.0,0.0,49,0.00,,,0.00,meteobridge,2013-08-19 06:01:00,
2013-08-18 23:16:00,65.1,46.0,29.88,ESE,106,0.0,0.0,50,0.00,,,0.00,meteobridge,2013-08-19 06:16:00,
2013-08-18 23:31:00,65.5,45.9,29.88,ESE,106,0.0,0.0,49,0.00,,,0.00,meteobridge,2013-08-19 06:31:00,
2013-08-18 23:46:00,65.1,46.6,29.88,ESE,106,0.0,0.0,51,0.00,,,0.00,meteobridge,2013-08-19 06:46:00,